sensor_id;sensor_type;location;lat;lon;timestamp;pressure;altitude;pressure_sealevel;temperature;humidity
46768;BME280;69007;48.978;18.066;2023-05-25T00:01:28;97898.63;;;14.18;100.00
46768;BME280;69007;48.978;18.066;2023-05-25T00:03:54;97903.31;;;14.17;100.00
46768;BME280;69007;48.978;18.066;2023-05-25T00:06:20;97890.97;;;14.20;100.00
46768;BME280;69007;48.978;18.066;2023-05-25T00:08:46;97905.47;;;14.21;100.00
46768;BME280;69007;48.978;18.066;2023-05-25T00:11:12;97903.31;;;14.17;100.00
46768;BME280;69007;48.978;18.066;2023-05-25T00:13:38;97896.69;;;14.24;100.00
46768;BME280;69007;48.978;18.066;2023-05-25T00:16:04;97909.06;;;14.16;100.00
46768;BME280;69007;48.978;18.066;2023-05-25T00:18:30;97887.47;;;14.09;100.00
46768;BME280;69007;48.978;18.066;2023-05-25T00:20:57;97900.59;;;14.12;100.00
46768;BME280;69007;48.978;18.066;2023-05-25T00:23:23;97897.28;;;14.15;100.00
46768;BME280;69007;48.978;18.066;2023-05-25T00:25:48;97910.72;;;14.12;100.00
46768;BME280;69007;48.978;18.066;2023-05-25T00:28:14;97894.63;;;14.00;100.00
46768;BME280;69007;48.978;18.066;2023-05-25T00:30:39;97908.25;;;14.10;100.00
46768;BME280;69007;48.978;18.066;2023-05-25T00:33:05;97900.84;;;14.16;100.00
46768;BME280;69007;48.978;18.066;2023-05-25T00:35:30;97894.88;;;14.04;100.00
46768;BME280;69007;48.978;18.066;2023-05-25T00:37:55;97906.38;;;14.06;100.00
46768;BME280;69007;48.978;18.066;2023-05-25T00:40:21;97902.28;;;14.03;100.00
46768;BME280;69007;48.978;18.066;2023-05-25T00:42:46;97896.56;;;13.99;100.00
46768;BME280;69007;48.978;18.066;2023-05-25T00:45:12;97914.00;;;14.09;100.00
46768;BME280;69007;48.978;18.066;2023-05-25T00:47:42;97900.38;;;13.98;100.00
46768;BME280;69007;48.978;18.066;2023-05-25T00:50:09;97916.50;;;14.00;100.00
46768;BME280;69007;48.978;18.066;2023-05-25T00:52:35;97924.16;;;14.03;100.00
46768;BME280;69007;48.978;18.066;2023-05-25T00:55:02;97927.44;;;14.05;100.00
46768;BME280;69007;48.978;18.066;2023-05-25T00:57:30;97917.81;;;14.13;100.00
46768;BME280;69007;48.978;18.066;2023-05-25T00:59:59;97908.53;;;14.09;100.00
46768;BME280;69007;48.978;18.066;2023-05-25T01:02:27;97921.66;;;14.12;100.00
46768;BME280;69007;48.978;18.066;2023-05-25T01:04:53;97918.88;;;14.17;100.00
46768;BME280;69007;48.978;18.066;2023-05-25T01:07:25;97934.50;;;14.16;100.00
46768;BME280;69007;48.978;18.066;2023-05-25T01:09:57;97907.78;;;13.98;100.00
46768;BME280;69007;48.978;18.066;2023-05-25T01:12:23;97913.22;;;14.03;100.00
46768;BME280;69007;48.978;18.066;2023-05-25T01:14:51;97925.81;;;14.04;100.00
46768;BME280;69007;48.978;18.066;2023-05-25T01:17:17;97912.66;;;14.06;100.00
46768;BME280;69007;48.978;18.066;2023-05-25T01:19:44;97894.09;;;13.98;100.00
46768;BME280;69007;48.978;18.066;2023-05-25T01:22:27;97900.63;;;14.02;100.00
46768;BME280;69007;48.978;18.066;2023-05-25T01:25:26;97908.59;;;13.98;100.00
46768;BME280;69007;48.978;18.066;2023-05-25T01:30:25;97899.03;;;13.96;100.00
46768;BME280;69007;48.978;18.066;2023-05-25T01:32:52;97914.59;;;14.00;100.00
46768;BME280;69007;48.978;18.066;2023-05-25T01:35:18;97919.56;;;13.88;100.00
46768;BME280;69007;48.978;18.066;2023-05-25T01:37:48;97925.06;;;13.88;100.00
46768;BME280;69007;48.978;18.066;2023-05-25T01:40:14;97928.59;;;13.89;100.00
46768;BME280;69007;48.978;18.066;2023-05-25T01:42:40;97931.59;;;13.87;100.00
46768;BME280;69007;48.978;18.066;2023-05-25T01:45:06;97895.84;;;13.73;100.00
46768;BME280;69007;48.978;18.066;2023-05-25T01:47:55;97910.59;;;13.72;100.00
46768;BME280;69007;48.978;18.066;2023-05-25T01:52:56;97926.69;;;13.84;100.00
46768;BME280;69007;48.978;18.066;2023-05-25T01:55:26;97925.34;;;13.81;100.00
46768;BME280;69007;48.978;18.066;2023-05-25T01:57:55;97929.69;;;13.82;100.00
46768;BME280;69007;48.978;18.066;2023-05-25T02:00:25;97917.41;;;13.80;100.00
46768;BME280;69007;48.978;18.066;2023-05-25T02:02:51;97898.84;;;13.77;100.00
46768;BME280;69007;48.978;18.066;2023-05-25T02:05:18;97914.09;;;13.88;100.00
46768;BME280;69007;48.978;18.066;2023-05-25T02:07:43;97904.00;;;13.83;100.00
46768;BME280;69007;48.978;18.066;2023-05-25T02:10:09;97916.06;;;13.77;100.00
46768;BME280;69007;48.978;18.066;2023-05-25T02:12:35;97913.28;;;13.82;100.00
46768;BME280;69007;48.978;18.066;2023-05-25T02:15:00;97916.03;;;13.82;100.00
46768;BME280;69007;48.978;18.066;2023-05-25T02:17:25;97893.13;;;13.68;100.00
46768;BME280;69007;48.978;18.066;2023-05-25T02:19:52;97906.78;;;13.73;100.00
46768;BME280;69007;48.978;18.066;2023-05-25T02:22:19;97907.34;;;13.70;100.00
46768;BME280;69007;48.978;18.066;2023-05-25T02:24:45;97900.50;;;13.68;100.00
46768;BME280;69007;48.978;18.066;2023-05-25T02:27:10;97912.75;;;13.80;100.00
46768;BME280;69007;48.978;18.066;2023-05-25T02:29:37;97919.84;;;13.87;100.00
46768;BME280;69007;48.978;18.066;2023-05-25T02:32:02;97908.13;;;13.76;100.00
46768;BME280;69007;48.978;18.066;2023-05-25T02:34:28;97910.06;;;13.75;100.00
46768;BME280;69007;48.978;18.066;2023-05-25T02:36:53;97910.59;;;13.77;100.00
46768;BME280;69007;48.978;18.066;2023-05-25T02:39:18;97925.34;;;13.81;100.00
46768;BME280;69007;48.978;18.066;2023-05-25T02:41:43;97915.25;;;13.77;100.00
46768;BME280;69007;48.978;18.066;2023-05-25T02:44:09;97913.59;;;13.76;100.00
46768;BME280;69007;48.978;18.066;2023-05-25T02:46:34;97912.75;;;13.80;100.00
46768;BME280;69007;48.978;18.066;2023-05-25T02:49:00;97920.16;;;13.80;100.00
46768;BME280;69007;48.978;18.066;2023-05-25T02:51:26;97931.06;;;13.90;100.00
46768;BME280;69007;48.978;18.066;2023-05-25T02:53:52;97931.34;;;13.83;100.00
46768;BME280;69007;48.978;18.066;2023-05-25T02:56:17;97923.69;;;13.86;100.00
46768;BME280;69007;48.978;18.066;2023-05-25T02:58:42;97921.00;;;13.75;100.00
46768;BME280;69007;48.978;18.066;2023-05-25T03:01:08;97932.16;;;13.84;100.00
46768;BME280;69007;48.978;18.066;2023-05-25T03:03:35;97942.03;;;13.80;100.00
46768;BME280;69007;48.978;18.066;2023-05-25T03:06:01;97915.78;;;13.79;100.00
46768;BME280;69007;48.978;18.066;2023-05-25T03:08:28;97926.16;;;13.82;100.00
46768;BME280;69007;48.978;18.066;2023-05-25T03:10:54;97934.63;;;13.86;100.00
46768;BME280;69007;48.978;18.066;2023-05-25T03:13:19;97930.28;;;13.79;100.00
46768;BME280;69007;48.978;18.066;2023-05-25T03:15:44;97919.94;;;13.66;100.00
46768;BME280;69007;48.978;18.066;2023-05-25T03:18:10;97918.28;;;13.65;100.00
46768;BME280;69007;48.978;18.066;2023-05-25T03:20:35;97931.13;;;13.75;100.00
46768;BME280;69007;48.978;18.066;2023-05-25T03:23:01;97942.03;;;13.80;100.00
46768;BME280;69007;48.978;18.066;2023-05-25T03:25:26;97937.13;;;13.77;100.00
46768;BME280;69007;48.978;18.066;2023-05-25T03:27:52;97937.94;;;13.77;100.00
46768;BME280;69007;48.978;18.066;2023-05-25T03:30:19;97939.59;;;13.78;100.00
46768;BME280;69007;48.978;18.066;2023-05-25T03:32:44;97945.06;;;13.78;100.00
46768;BME280;69007;48.978;18.066;2023-05-25T03:35:10;97944.72;;;13.90;100.00
46768;BME280;69007;48.978;18.066;2023-05-25T03:37:35;97953.19;;;13.94;100.00
46768;BME280;69007;48.978;18.066;2023-05-25T03:40:01;97959.22;;;13.96;100.00
46768;BME280;69007;48.978;18.066;2023-05-25T03:42:27;97957.03;;;13.93;100.00
46768;BME280;69007;48.978;18.066;2023-05-25T03:44:52;97936.22;;;13.97;100.00
46768;BME280;69007;48.978;18.066;2023-05-25T03:47:17;97952.59;;;14.12;100.00
46768;BME280;69007;48.978;18.066;2023-05-25T03:49:43;97939.47;;;14.09;100.00
46768;BME280;69007;48.978;18.066;2023-05-25T03:52:08;97947.66;;;14.14;100.00
46768;BME280;69007;48.978;18.066;2023-05-25T03:54:33;97959.03;;;14.32;100.00
46768;BME280;69007;48.978;18.066;2023-05-25T03:56:59;97953.72;;;14.56;100.00
46768;BME280;69007;48.978;18.066;2023-05-25T03:59:25;97942.41;;;14.73;100.00
46768;BME280;69007;48.978;18.066;2023-05-25T04:01:51;97955.44;;;14.91;100.00
46768;BME280;69007;48.978;18.066;2023-05-25T04:04:16;97951.16;;;14.75;100.00
46768;BME280;69007;48.978;18.066;2023-05-25T04:06:42;97959.22;;;14.96;100.00
46768;BME280;69007;48.978;18.066;2023-05-25T04:09:10;97963.09;;;14.89;100.00
46768;BME280;69007;48.978;18.066;2023-05-25T04:11:36;97970.88;;;15.11;100.00
46768;BME280;69007;48.978;18.066;2023-05-25T04:14:01;97975.81;;;15.15;100.00
46768;BME280;69007;48.978;18.066;2023-05-25T04:16:27;97965.25;;;15.27;100.00
46768;BME280;69007;48.978;18.066;2023-05-25T04:18:53;97965.44;;;15.36;100.00
46768;BME280;69007;48.978;18.066;2023-05-25T04:21:18;97958.13;;;15.26;100.00
46768;BME280;69007;48.978;18.066;2023-05-25T04:23:44;97956.81;;;15.23;100.00
46768;BME280;69007;48.978;18.066;2023-05-25T04:26:09;97962.91;;;15.15;100.00
46768;BME280;69007;48.978;18.066;2023-05-25T04:28:35;97972.75;;;15.16;100.00
46768;BME280;69007;48.978;18.066;2023-05-25T04:31:01;97945.84;;;15.23;100.00
46768;BME280;69007;48.978;18.066;2023-05-25T04:33:28;97975.41;;;15.56;100.00
46768;BME280;69007;48.978;18.066;2023-05-25T04:35:54;97973.03;;;15.73;100.00
46768;BME280;69007;48.978;18.066;2023-05-25T04:38:23;97978.25;;;15.75;100.00
46768;BME280;69007;48.978;18.066;2023-05-25T04:40:49;97973.97;;;15.93;100.00
46768;BME280;69007;48.978;18.066;2023-05-25T04:43:16;97977.88;;;16.11;100.00
46768;BME280;69007;48.978;18.066;2023-05-25T04:45:43;97971.31;;;16.07;100.00
46768;BME280;69007;48.978;18.066;2023-05-25T04:48:10;97976.66;;;15.98;100.00
46768;BME280;69007;48.978;18.066;2023-05-25T04:50:37;97970.00;;;16.04;100.00
46768;BME280;69007;48.978;18.066;2023-05-25T04:53:04;97961.41;;;16.11;100.00
46768;BME280;69007;48.978;18.066;2023-05-25T04:55:29;97982.94;;;16.23;100.00
46768;BME280;69007;48.978;18.066;2023-05-25T04:57:55;97986.78;;;16.21;100.00
46768;BME280;69007;48.978;18.066;2023-05-25T05:00:20;97981.59;;;16.20;100.00
46768;BME280;69007;48.978;18.066;2023-05-25T05:02:46;97974.47;;;16.19;100.00
46768;BME280;69007;48.978;18.066;2023-05-25T05:05:11;97982.00;;;16.32;100.00
46768;BME280;69007;48.978;18.066;2023-05-25T05:07:37;97986.44;;;16.28;100.00
46768;BME280;69007;48.978;18.066;2023-05-25T05:10:03;97984.59;;;16.24;100.00
46768;BME280;69007;48.978;18.066;2023-05-25T05:12:28;97982.44;;;16.39;100.00
46768;BME280;69007;48.978;18.066;2023-05-25T05:14:54;97984.69;;;16.37;100.00
46768;BME280;69007;48.978;18.066;2023-05-25T05:17:20;97978.06;;;16.38;100.00
46768;BME280;69007;48.978;18.066;2023-05-25T05:19:45;97989.88;;;16.58;100.00
46768;BME280;69007;48.978;18.066;2023-05-25T05:22:11;98000.19;;;16.47;100.00
46768;BME280;69007;48.978;18.066;2023-05-25T05:24:39;97987.56;;;16.03;100.00
46768;BME280;69007;48.978;18.066;2023-05-25T05:27:04;97987.16;;;15.91;100.00
46768;BME280;69007;48.978;18.066;2023-05-25T05:29:30;97998.03;;;16.01;100.00
46768;BME280;69007;48.978;18.066;2023-05-25T05:31:55;97996.84;;;15.83;100.00
46768;BME280;69007;48.978;18.066;2023-05-25T05:34:21;98022.84;;;16.15;100.00
46768;BME280;69007;48.978;18.066;2023-05-25T05:36:46;97989.59;;;16.16;100.00
46768;BME280;69007;48.978;18.066;2023-05-25T05:39:12;98013.28;;;16.55;100.00
46768;BME280;69007;48.978;18.066;2023-05-25T05:41:38;98021.03;;;16.29;100.00
46768;BME280;69007;48.978;18.066;2023-05-25T05:44:03;98008.75;;;16.21;100.00
46768;BME280;69007;48.978;18.066;2023-05-25T05:46:28;98006.28;;;16.20;100.00
46768;BME280;69007;48.978;18.066;2023-05-25T05:48:54;98006.28;;;16.20;100.00
46768;BME280;69007;48.978;18.066;2023-05-25T05:51:19;98022.44;;;16.02;100.00
46768;BME280;69007;48.978;18.066;2023-05-25T05:53:44;98021.38;;;15.98;100.00
46768;BME280;69007;48.978;18.066;2023-05-25T05:56:17;98018.00;;;15.82;100.00
46768;BME280;69007;48.978;18.066;2023-05-25T05:58:43;98019.31;;;15.85;100.00
46768;BME280;69007;48.978;18.066;2023-05-25T06:01:08;98028.38;;;16.10;100.00
46768;BME280;69007;48.978;18.066;2023-05-25T06:03:34;98030.63;;;16.32;100.00
46768;BME280;69007;48.978;18.066;2023-05-25T06:05:59;98034.56;;;16.45;100.00
46768;BME280;69007;48.978;18.066;2023-05-25T06:08:26;98032.50;;;16.55;100.00
46768;BME280;69007;48.978;18.066;2023-05-25T06:10:51;98037.88;;;16.66;100.00
46768;BME280;69007;48.978;18.066;2023-05-25T06:13:17;98043.66;;;16.64;100.00
46768;BME280;69007;48.978;18.066;2023-05-25T06:15:42;98037.38;;;16.39;100.00
46768;BME280;69007;48.978;18.066;2023-05-25T06:18:07;98044.91;;;16.53;100.00
46768;BME280;69007;48.978;18.066;2023-05-25T06:20:33;98029.91;;;16.45;100.00
46768;BME280;69007;48.978;18.066;2023-05-25T06:22:59;98041.34;;;16.28;100.00
46768;BME280;69007;48.978;18.066;2023-05-25T06:25:25;98034.75;;;16.53;100.00
46768;BME280;69007;48.978;18.066;2023-05-25T06:27:50;98049.47;;;16.82;100.00
46768;BME280;69007;48.978;18.066;2023-05-25T06:30:16;98047.81;;;16.81;100.00
46768;BME280;69007;48.978;18.066;2023-05-25T06:32:41;98044.91;;;16.96;100.00
46768;BME280;69007;48.978;18.066;2023-05-25T06:35:07;98062.06;;;16.88;100.00
46768;BME280;69007;48.978;18.066;2023-05-25T06:37:33;98056.03;;;16.86;100.00
46768;BME280;69007;48.978;18.066;2023-05-25T06:40:03;98057.63;;;17.11;100.00
46768;BME280;69007;48.978;18.066;2023-05-25T06:42:35;98047.53;;;16.82;100.00
46768;BME280;69007;48.978;18.066;2023-05-25T06:45:02;98055.22;;;16.85;100.00
46768;BME280;69007;48.978;18.066;2023-05-25T06:47:28;98052.56;;;16.56;100.00
46768;BME280;69007;48.978;18.066;2023-05-25T06:49:53;98049.13;;;16.21;100.00
46768;BME280;69007;48.978;18.066;2023-05-25T06:52:19;98076.31;;;16.47;100.00
46768;BME280;69007;48.978;18.066;2023-05-25T06:54:44;98059.69;;;16.33;100.00
46768;BME280;69007;48.978;18.066;2023-05-25T06:57:10;98067.22;;;16.46;100.00
46768;BME280;69007;48.978;18.066;2023-05-25T06:59:36;98065.41;;;16.36;100.00
46768;BME280;69007;48.978;18.066;2023-05-25T07:02:01;98058.81;;;16.37;100.00
46768;BME280;69007;48.978;18.066;2023-05-25T07:04:26;98069.75;;;16.43;100.00
46768;BME280;69007;48.978;18.066;2023-05-25T07:06:52;98078.50;;;16.45;100.00
46768;BME280;69007;48.978;18.066;2023-05-25T07:09:18;98064.59;;;16.60;100.00
46768;BME280;69007;48.978;18.066;2023-05-25T07:11:43;98071.47;;;16.38;100.00
46768;BME280;69007;48.978;18.066;2023-05-25T07:14:09;98074.75;;;16.59;100.00
46768;BME280;69007;48.978;18.066;2023-05-25T07:16:34;98051.09;;;16.39;100.00
46768;BME280;69007;48.978;18.066;2023-05-25T07:19:00;98081.19;;;16.50;100.00
46768;BME280;69007;48.978;18.066;2023-05-25T07:21:26;98070.53;;;16.67;100.00
46768;BME280;69007;48.978;18.066;2023-05-25T07:23:51;98086.88;;;16.77;100.00
46768;BME280;69007;48.978;18.066;2023-05-25T07:26:17;98095.53;;;16.47;100.00
46768;BME280;69007;48.978;18.066;2023-05-25T07:28:47;98084.25;;;16.48;100.00
46768;BME280;69007;48.978;18.066;2023-05-25T07:31:13;98081.59;;;16.38;100.00
46768;BME280;69007;48.978;18.066;2023-05-25T07:33:38;98098.50;;;16.50;100.00
46768;BME280;69007;48.978;18.066;2023-05-25T07:36:04;98083.78;;;16.41;100.00
46768;BME280;69007;48.978;18.066;2023-05-25T07:38:29;98075.19;;;16.48;100.00
46768;BME280;69007;48.978;18.066;2023-05-25T07:40:55;98092.72;;;15.98;100.00
46768;BME280;69007;48.978;18.066;2023-05-25T07:43:20;98075.69;;;16.01;100.00
46768;BME280;69007;48.978;18.066;2023-05-25T07:45:45;98102.84;;;16.03;100.00
46768;BME280;69007;48.978;18.066;2023-05-25T07:48:11;98084.69;;;16.31;100.00
46768;BME280;69007;48.978;18.066;2023-05-25T07:50:36;98101.25;;;16.50;100.00
46768;BME280;69007;48.978;18.066;2023-05-25T07:53:02;98083.59;;;16.32;100.00
46768;BME280;69007;48.978;18.066;2023-05-25T07:55:27;98104.13;;;16.40;100.00
46768;BME280;69007;48.978;18.066;2023-05-25T07:57:53;98088.81;;;16.34;100.00
46768;BME280;69007;48.978;18.066;2023-05-25T08:00:18;98097.38;;;16.51;100.00
46768;BME280;69007;48.978;18.066;2023-05-25T08:02:44;98093.31;;;16.49;100.00
46768;BME280;69007;48.978;18.066;2023-05-25T08:05:09;98095.34;;;16.62;100.00
46768;BME280;69007;48.978;18.066;2023-05-25T08:07:35;98094.25;;;16.82;100.00
46768;BME280;69007;48.978;18.066;2023-05-25T08:10:01;98091.78;;;17.05;100.00
46768;BME280;69007;48.978;18.066;2023-05-25T08:12:27;98099.81;;;17.20;100.00
46768;BME280;69007;48.978;18.066;2023-05-25T08:14:53;98110.16;;;17.09;100.00
46768;BME280;69007;48.978;18.066;2023-05-25T08:17:19;98093.97;;;16.59;100.00
46768;BME280;69007;48.978;18.066;2023-05-25T08:19:45;98101.06;;;16.66;100.00
46768;BME280;69007;48.978;18.066;2023-05-25T08:22:10;98114.91;;;16.80;100.00
46768;BME280;69007;48.978;18.066;2023-05-25T08:24:36;98106.47;;;16.52;100.00
46768;BME280;69007;48.978;18.066;2023-05-25T08:27:01;98118.41;;;16.61;100.00
46768;BME280;69007;48.978;18.066;2023-05-25T08:29:27;98096.47;;;17.04;100.00
46768;BME280;69007;48.978;18.066;2023-05-25T08:31:52;98105.94;;;17.69;100.00
46768;BME280;69007;48.978;18.066;2023-05-25T08:34:18;98114.38;;;17.92;100.00
46768;BME280;69007;48.978;18.066;2023-05-25T08:36:44;98103.88;;;17.61;100.00
46768;BME280;69007;48.978;18.066;2023-05-25T08:39:09;98086.22;;;17.62;100.00
46768;BME280;69007;48.978;18.066;2023-05-25T08:41:35;98087.59;;;17.97;100.00
46768;BME280;69007;48.978;18.066;2023-05-25T08:44:05;98109.03;;;18.14;100.00
46768;BME280;69007;48.978;18.066;2023-05-25T08:46:32;98101.81;;;18.18;100.00
46768;BME280;69007;48.978;18.066;2023-05-25T08:49:02;98110.81;;;18.24;100.00
46768;BME280;69007;48.978;18.066;2023-05-25T08:51:32;98102.75;;;18.28;100.00
46768;BME280;69007;48.978;18.066;2023-05-25T08:54:06;98091.03;;;18.50;100.00
46768;BME280;69007;48.978;18.066;2023-05-25T08:56:35;98106.63;;;18.68;100.00
46768;BME280;69007;48.978;18.066;2023-05-25T08:59:06;98098.78;;;18.62;100.00
46768;BME280;69007;48.978;18.066;2023-05-25T09:01:38;98093.16;;;18.67;100.00
46768;BME280;69007;48.978;18.066;2023-05-25T09:04:07;98094.47;;;18.97;100.00
46768;BME280;69007;48.978;18.066;2023-05-25T09:06:32;98105.91;;;18.49;100.00
46768;BME280;69007;48.978;18.066;2023-05-25T09:09:03;98101.22;;;18.21;100.00
46768;BME280;69007;48.978;18.066;2023-05-25T09:11:29;98101.56;;;18.01;100.00
46768;BME280;69007;48.978;18.066;2023-05-25T09:13:56;98114.44;;;18.05;100.00
46768;BME280;69007;48.978;18.066;2023-05-25T09:16:22;98098.38;;;18.27;100.00
46768;BME280;69007;48.978;18.066;2023-05-25T09:18:48;98101.53;;;18.34;100.00
46768;BME280;69007;48.978;18.066;2023-05-25T09:21:14;98104.50;;;18.51;100.00
46768;BME280;69007;48.978;18.066;2023-05-25T09:23:39;98103.84;;;18.82;100.00
46768;BME280;69007;48.978;18.066;2023-05-25T09:26:05;98124.59;;;18.52;100.00
46768;BME280;69007;48.978;18.066;2023-05-25T09:28:31;98093.06;;;18.44;100.00
46768;BME280;69007;48.978;18.066;2023-05-25T09:30:57;98105.59;;;18.64;100.00
46768;BME280;69007;48.978;18.066;2023-05-25T09:33:22;98103.88;;;18.54;100.00
46768;BME280;69007;48.978;18.066;2023-05-25T09:35:48;98088.69;;;18.43;100.00
46768;BME280;69007;48.978;18.066;2023-05-25T09:38:16;98094.78;;;18.12;100.00
46768;BME280;69007;48.978;18.066;2023-05-25T09:40:42;98112.13;;;18.54;100.00
46768;BME280;69007;48.978;18.066;2023-05-25T09:43:08;98094.19;;;18.43;100.00
46768;BME280;69007;48.978;18.066;2023-05-25T09:45:33;98095.91;;;18.39;100.00
46768;BME280;69007;48.978;18.066;2023-05-25T09:48:00;98105.22;;;18.57;100.00
46768;BME280;69007;48.978;18.066;2023-05-25T09:50:26;98105.72;;;18.59;100.00
46768;BME280;69007;48.978;18.066;2023-05-25T09:52:55;98089.81;;;18.42;100.00
46768;BME280;69007;48.978;18.066;2023-05-25T09:55:21;98105.31;;;18.38;100.00
46768;BME280;69007;48.978;18.066;2023-05-25T09:57:52;98099.47;;;18.12;100.00
46768;BME280;69007;48.978;18.066;2023-05-25T10:00:21;98088.34;;;18.17;100.00
46768;BME280;69007;48.978;18.066;2023-05-25T10:02:46;98090.16;;;17.94;100.00
46768;BME280;69007;48.978;18.066;2023-05-25T10:05:12;98092.59;;;17.95;100.00
46768;BME280;69007;48.978;18.066;2023-05-25T10:07:37;98102.91;;;17.71;100.00
46768;BME280;69007;48.978;18.066;2023-05-25T10:10:05;98116.44;;;18.00;100.00
46768;BME280;69007;48.978;18.066;2023-05-25T10:12:32;98086.34;;;17.90;100.00
46768;BME280;69007;48.978;18.066;2023-05-25T10:15:00;98092.56;;;18.28;100.00
46768;BME280;69007;48.978;18.066;2023-05-25T10:17:30;98078.47;;;18.30;100.00
46768;BME280;69007;48.978;18.066;2023-05-25T10:19:58;98096.22;;;18.23;100.00
46768;BME280;69007;48.978;18.066;2023-05-25T10:22:30;98089.25;;;18.26;100.00
46768;BME280;69007;48.978;18.066;2023-05-25T10:27:55;98080.81;;;18.36;100.00
46768;BME280;69007;48.978;18.066;2023-05-25T10:30:22;98072.25;;;18.38;100.00
46768;BME280;69007;48.978;18.066;2023-05-25T10:32:49;98087.81;;;18.15;100.00
46768;BME280;69007;48.978;18.066;2023-05-25T10:35:16;98092.63;;;18.09;100.00
46768;BME280;69007;48.978;18.066;2023-05-25T10:37:42;98076.94;;;18.23;100.00
46768;BME280;69007;48.978;18.066;2023-05-25T10:40:09;98063.88;;;18.29;100.00
46768;BME280;69007;48.978;18.066;2023-05-25T10:42:36;98054.91;;;18.23;100.00
46768;BME280;69007;48.978;18.066;2023-05-25T10:45:07;98055.50;;;18.34;100.00
46768;BME280;69007;48.978;18.066;2023-05-25T10:47:35;98059.09;;;18.35;100.00
46768;BME280;69007;48.978;18.066;2023-05-25T10:50:02;98065.22;;;18.32;100.00
46768;BME280;69007;48.978;18.066;2023-05-25T10:52:29;98063.38;;;18.27;100.00
46768;BME280;69007;48.978;18.066;2023-05-25T10:54:59;98059.81;;;18.27;100.00
46768;BME280;69007;48.978;18.066;2023-05-25T10:57:29;98059.59;;;18.37;100.00
46768;BME280;69007;48.978;18.066;2023-05-25T11:00:00;98054.41;;;18.21;100.00
46768;BME280;69007;48.978;18.066;2023-05-25T11:02:27;98065.88;;;18.10;100.00
46768;BME280;69007;48.978;18.066;2023-05-25T11:08:03;98046.31;;;18.11;100.00
46768;BME280;69007;48.978;18.066;2023-05-25T11:13:34;98042.66;;;18.30;100.00
46768;BME280;69007;48.978;18.066;2023-05-25T11:18:56;98025.41;;;18.24;100.00
46768;BME280;69007;48.978;18.066;2023-05-25T11:26:22;98023.69;;;18.28;100.00
46768;BME280;69007;48.978;18.066;2023-05-25T11:28:56;98017.78;;;18.35;100.00
46768;BME280;69007;48.978;18.066;2023-05-25T11:31:32;98028.56;;;18.45;100.00
46768;BME280;69007;48.978;18.066;2023-05-25T11:33:58;98027.53;;;18.41;100.00
46768;BME280;69007;48.978;18.066;2023-05-25T11:36:25;98016.94;;;18.20;100.00
46768;BME280;69007;48.978;18.066;2023-05-25T11:38:51;98024.28;;;18.25;100.00
46768;BME280;69007;48.978;18.066;2023-05-25T11:41:22;98019.78;;;18.29;100.00
46768;BME280;69007;48.978;18.066;2023-05-25T11:43:49;98020.59;;;18.44;100.00
46768;BME280;69007;48.978;18.066;2023-05-25T11:46:20;98009.97;;;18.65;100.00
46768;BME280;69007;48.978;18.066;2023-05-25T11:48:52;98017.59;;;18.82;100.00
46768;BME280;69007;48.978;18.066;2023-05-25T11:51:20;98014.22;;;18.71;100.00
46768;BME280;69007;48.978;18.066;2023-05-25T11:53:46;98022.91;;;18.78;100.00
46768;BME280;69007;48.978;18.066;2023-05-25T11:56:13;97995.84;;;18.80;100.00
46768;BME280;69007;48.978;18.066;2023-05-25T11:58:39;98002.78;;;18.77;100.00
46768;BME280;69007;48.978;18.066;2023-05-25T12:01:12;98000.44;;;18.71;100.00
46768;BME280;69007;48.978;18.066;2023-05-25T12:03:39;97990.69;;;18.65;100.00
46768;BME280;69007;48.978;18.066;2023-05-25T12:06:05;97993.09;;;18.80;100.00
46768;BME280;69007;48.978;18.066;2023-05-25T12:08:32;97996.47;;;18.77;100.00
46768;BME280;69007;48.978;18.066;2023-05-25T12:10:58;97998.91;;;18.78;100.00
46768;BME280;69007;48.978;18.066;2023-05-25T12:13:23;97978.63;;;18.74;100.00
46768;BME280;69007;48.978;18.066;2023-05-25T12:15:49;97965.16;;;18.59;100.00
46768;BME280;69007;48.978;18.066;2023-05-25T12:18:16;97993.13;;;18.66;100.00
46768;BME280;69007;48.978;18.066;2023-05-25T12:20:42;97992.75;;;18.45;100.00
46768;BME280;69007;48.978;18.066;2023-05-25T12:23:08;97984.84;;;18.66;100.00
46768;BME280;69007;48.978;18.066;2023-05-25T12:25:33;97985.06;;;18.70;100.00
46768;BME280;69007;48.978;18.066;2023-05-25T12:28:12;97961.94;;;18.79;100.00
46768;BME280;69007;48.978;18.066;2023-05-25T12:30:39;97973.88;;;18.89;100.00
46768;BME280;69007;48.978;18.066;2023-05-25T12:33:04;97963.38;;;18.91;100.00
46768;BME280;69007;48.978;18.066;2023-05-25T12:35:43;97969.88;;;18.95;100.00
46768;BME280;69007;48.978;18.066;2023-05-25T12:38:13;97968.56;;;19.15;100.00
46768;BME280;69007;48.978;18.066;2023-05-25T12:40:40;97972.97;;;19.16;100.00
46768;BME280;69007;48.978;18.066;2023-05-25T12:43:06;97973.78;;;19.17;100.00
46768;BME280;69007;48.978;18.066;2023-05-25T12:45:31;97955.94;;;19.14;100.00
46768;BME280;69007;48.978;18.066;2023-05-25T12:47:57;97971.78;;;19.31;100.00
46768;BME280;69007;48.978;18.066;2023-05-25T12:50:22;97976.59;;;19.25;100.00
46768;BME280;69007;48.978;18.066;2023-05-25T12:52:48;97978.66;;;19.20;100.00
46768;BME280;69007;48.978;18.066;2023-05-25T12:55:32;97965.44;;;19.08;100.00
46768;BME280;69007;48.978;18.066;2023-05-25T12:58:04;97958.75;;;19.23;100.00
46768;BME280;69007;48.978;18.066;2023-05-25T13:00:37;97948.50;;;19.23;100.00